sensor_id;sensor_type;location;lat;lon;timestamp;P1;durP1;ratioP1;P2;durP2;ratioP2
55031;SDS011;40928;51.076;7.950;2022-11-20T00:00:37;10.93;;;5.22;;
55031;SDS011;40928;51.076;7.950;2022-11-20T00:03:03;9.77;;;5.15;;
55031;SDS011;40928;51.076;7.950;2022-11-20T00:05:28;9.95;;;5.80;;
55031;SDS011;40928;51.076;7.950;2022-11-20T00:07:57;12.10;;;6.05;;
55031;SDS011;40928;51.076;7.950;2022-11-20T00:10:22;11.85;;;6.07;;
55031;SDS011;40928;51.076;7.950;2022-11-20T00:12:47;12.05;;;5.22;;
55031;SDS011;40928;51.076;7.950;2022-11-20T00:15:13;11.32;;;5.38;;
55031;SDS011;40928;51.076;7.950;2022-11-20T00:17:38;11.93;;;6.22;;
55031;SDS011;40928;51.076;7.950;2022-11-20T00:20:04;10.60;;;5.47;;
55031;SDS011;40928;51.076;7.950;2022-11-20T00:22:30;9.95;;;5.70;;
55031;SDS011;40928;51.076;7.950;2022-11-20T00:24:55;11.18;;;5.75;;
55031;SDS011;40928;51.076;7.950;2022-11-20T00:27:22;11.85;;;5.50;;
55031;SDS011;40928;51.076;7.950;2022-11-20T00:29:48;10.25;;;5.53;;
55031;SDS011;40928;51.076;7.950;2022-11-20T00:32:13;8.98;;;5.05;;
55031;SDS011;40928;51.076;7.950;2022-11-20T00:34:38;10.38;;;4.97;;
55031;SDS011;40928;51.076;7.950;2022-11-20T00:37:04;8.27;;;4.65;;
55031;SDS011;40928;51.076;7.950;2022-11-20T00:39:30;11.15;;;5.90;;
55031;SDS011;40928;51.076;7.950;2022-11-20T00:41:55;10.77;;;5.25;;
55031;SDS011;40928;51.076;7.950;2022-11-20T00:44:21;9.55;;;5.15;;
55031;SDS011;40928;51.076;7.950;2022-11-20T00:46:46;9.55;;;4.50;;
55031;SDS011;40928;51.076;7.950;2022-11-20T00:49:11;8.18;;;4.43;;
55031;SDS011;40928;51.076;7.950;2022-11-20T00:51:37;10.95;;;4.60;;
55031;SDS011;40928;51.076;7.950;2022-11-20T00:54:02;10.02;;;5.38;;
55031;SDS011;40928;51.076;7.950;2022-11-20T00:56:28;13.35;;;5.35;;
55031;SDS011;40928;51.076;7.950;2022-11-20T00:58:54;11.25;;;5.93;;
55031;SDS011;40928;51.076;7.950;2022-11-20T01:01:24;11.10;;;5.22;;
55031;SDS011;40928;51.076;7.950;2022-11-20T01:03:51;12.10;;;5.90;;
55031;SDS011;40928;51.076;7.950;2022-11-20T01:06:19;11.77;;;5.97;;
55031;SDS011;40928;51.076;7.950;2022-11-20T01:08:56;12.05;;;5.82;;
55031;SDS011;40928;51.076;7.950;2022-11-20T01:11:34;9.52;;;5.30;;
55031;SDS011;40928;51.076;7.950;2022-11-20T01:14:01;11.18;;;5.03;;
55031;SDS011;40928;51.076;7.950;2022-11-20T01:16:33;11.43;;;5.55;;
55031;SDS011;40928;51.076;7.950;2022-11-20T01:19:02;10.27;;;5.18;;
55031;SDS011;40928;51.076;7.950;2022-11-20T01:21:33;12.45;;;6.05;;
55031;SDS011;40928;51.076;7.950;2022-11-20T01:24:01;14.73;;;6.03;;
55031;SDS011;40928;51.076;7.950;2022-11-20T01:26:28;12.30;;;6.45;;
55031;SDS011;40928;51.076;7.950;2022-11-20T01:28:56;13.52;;;6.72;;
55031;SDS011;40928;51.076;7.950;2022-11-20T01:33:54;13.40;;;6.72;;
55031;SDS011;40928;51.076;7.950;2022-11-20T01:36:22;14.40;;;7.25;;
55031;SDS011;40928;51.076;7.950;2022-11-20T01:38:58;13.15;;;6.80;;
55031;SDS011;40928;51.076;7.950;2022-11-20T01:41:26;15.30;;;7.63;;
55031;SDS011;40928;51.076;7.950;2022-11-20T01:44:14;22.48;;;7.97;;
55031;SDS011;40928;51.076;7.950;2022-11-20T01:52:13;12.05;;;6.70;;
55031;SDS011;40928;51.076;7.950;2022-11-20T01:55:28;15.07;;;7.78;;
55031;SDS011;40928;51.076;7.950;2022-11-20T01:57:34;15.75;;;6.43;;
55031;SDS011;40928;51.076;7.950;2022-11-20T02:00:03;13.95;;;7.22;;
55031;SDS011;40928;51.076;7.950;2022-11-20T02:02:38;17.45;;;7.30;;
55031;SDS011;40928;51.076;7.950;2022-11-20T02:05:18;14.85;;;6.45;;
55031;SDS011;40928;51.076;7.950;2022-11-20T02:07:50;13.70;;;7.27;;
55031;SDS011;40928;51.076;7.950;2022-11-20T02:10:17;16.42;;;8.25;;
55031;SDS011;40928;51.076;7.950;2022-11-20T02:12:43;20.77;;;8.18;;
55031;SDS011;40928;51.076;7.950;2022-11-20T02:15:28;20.35;;;8.43;;
55031;SDS011;40928;51.076;7.950;2022-11-20T02:17:53;15.77;;;7.60;;
55031;SDS011;40928;51.076;7.950;2022-11-20T02:20:19;20.65;;;9.20;;
55031;SDS011;40928;51.076;7.950;2022-11-20T02:22:54;15.90;;;7.90;;
55031;SDS011;40928;51.076;7.950;2022-11-20T02:25:22;18.13;;;8.27;;
55031;SDS011;40928;51.076;7.950;2022-11-20T02:27:50;16.25;;;8.25;;
55031;SDS011;40928;51.076;7.950;2022-11-20T02:30:19;20.20;;;7.95;;
55031;SDS011;40928;51.076;7.950;2022-11-20T02:32:44;16.08;;;7.97;;
55031;SDS011;40928;51.076;7.950;2022-11-20T02:35:39;17.52;;;7.97;;
55031;SDS011;40928;51.076;7.950;2022-11-20T02:40:22;13.30;;;6.60;;
55031;SDS011;40928;51.076;7.950;2022-11-20T02:42:51;17.13;;;7.43;;
55031;SDS011;40928;51.076;7.950;2022-11-20T02:45:17;14.95;;;7.07;;
55031;SDS011;40928;51.076;7.950;2022-11-20T02:47:43;16.67;;;7.43;;
55031;SDS011;40928;51.076;7.950;2022-11-20T02:50:08;17.73;;;8.60;;
55031;SDS011;40928;51.076;7.950;2022-11-20T02:52:34;18.90;;;7.60;;
55031;SDS011;40928;51.076;7.950;2022-11-20T02:55:00;18.17;;;7.43;;
55031;SDS011;40928;51.076;7.950;2022-11-20T02:57:25;22.42;;;8.52;;
55031;SDS011;40928;51.076;7.950;2022-11-20T02:59:51;21.17;;;8.25;;
55031;SDS011;40928;51.076;7.950;2022-11-20T03:02:17;17.05;;;8.02;;
55031;SDS011;40928;51.076;7.950;2022-11-20T03:04:42;20.30;;;7.97;;
55031;SDS011;40928;51.076;7.950;2022-11-20T03:07:08;19.13;;;9.00;;
55031;SDS011;40928;51.076;7.950;2022-11-20T03:09:34;16.38;;;8.65;;
55031;SDS011;40928;51.076;7.950;2022-11-20T03:12:00;16.95;;;7.90;;
55031;SDS011;40928;51.076;7.950;2022-11-20T03:14:25;18.95;;;8.50;;
55031;SDS011;40928;51.076;7.950;2022-11-20T03:16:51;19.25;;;9.40;;
55031;SDS011;40928;51.076;7.950;2022-11-20T03:19:17;18.38;;;7.95;;
55031;SDS011;40928;51.076;7.950;2022-11-20T03:21:42;20.63;;;8.18;;
55031;SDS011;40928;51.076;7.950;2022-11-20T03:24:08;21.63;;;8.23;;
55031;SDS011;40928;51.076;7.950;2022-11-20T03:26:33;22.35;;;8.50;;
55031;SDS011;40928;51.076;7.950;2022-11-20T03:29:00;23.83;;;9.10;;
55031;SDS011;40928;51.076;7.950;2022-11-20T03:31:28;20.70;;;8.07;;
55031;SDS011;40928;51.076;7.950;2022-11-20T03:34:07;17.83;;;7.40;;
55031;SDS011;40928;51.076;7.950;2022-11-20T03:36:34;21.30;;;9.07;;
55031;SDS011;40928;51.076;7.950;2022-11-20T03:38:59;19.02;;;8.30;;
55031;SDS011;40928;51.076;7.950;2022-11-20T03:41:26;21.98;;;8.18;;
55031;SDS011;40928;51.076;7.950;2022-11-20T03:43:57;14.55;;;7.57;;
55031;SDS011;40928;51.076;7.950;2022-11-20T03:46:24;18.30;;;8.85;;
55031;SDS011;40928;51.076;7.950;2022-11-20T03:48:50;20.58;;;9.05;;
55031;SDS011;40928;51.076;7.950;2022-11-20T03:51:17;14.93;;;7.18;;
55031;SDS011;40928;51.076;7.950;2022-11-20T03:53:45;19.33;;;8.15;;
55031;SDS011;40928;51.076;7.950;2022-11-20T03:56:13;21.23;;;9.85;;
55031;SDS011;40928;51.076;7.950;2022-11-20T03:58:40;19.83;;;9.50;;
55031;SDS011;40928;51.076;7.950;2022-11-20T04:03:33;13.07;;;7.25;;
55031;SDS011;40928;51.076;7.950;2022-11-20T04:06:06;18.65;;;7.40;;
55031;SDS011;40928;51.076;7.950;2022-11-20T04:08:36;19.05;;;8.02;;
55031;SDS011;40928;51.076;7.950;2022-11-20T04:13:41;22.73;;;7.88;;
55031;SDS011;40928;51.076;7.950;2022-11-20T04:16:08;16.98;;;6.95;;
55031;SDS011;40928;51.076;7.950;2022-11-20T04:18:35;16.20;;;7.70;;
55031;SDS011;40928;51.076;7.950;2022-11-20T04:21:01;30.20;;;9.50;;
55031;SDS011;40928;51.076;7.950;2022-11-20T04:23:28;18.98;;;9.13;;
55031;SDS011;40928;51.076;7.950;2022-11-20T04:25:53;22.83;;;8.70;;
55031;SDS011;40928;51.076;7.950;2022-11-20T04:28:19;18.52;;;8.48;;
55031;SDS011;40928;51.076;7.950;2022-11-20T04:30:45;22.77;;;9.07;;
55031;SDS011;40928;51.076;7.950;2022-11-20T04:33:11;18.65;;;8.38;;
55031;SDS011;40928;51.076;7.950;2022-11-20T04:35:37;21.08;;;8.93;;
55031;SDS011;40928;51.076;7.950;2022-11-20T04:38:03;19.67;;;9.05;;
55031;SDS011;40928;51.076;7.950;2022-11-20T04:40:29;20.60;;;9.30;;
55031;SDS011;40928;51.076;7.950;2022-11-20T04:42:55;18.25;;;8.55;;
55031;SDS011;40928;51.076;7.950;2022-11-20T04:45:24;18.10;;;7.65;;
55031;SDS011;40928;51.076;7.950;2022-11-20T04:47:49;21.75;;;8.20;;
55031;SDS011;40928;51.076;7.950;2022-11-20T04:50:15;18.05;;;7.78;;
55031;SDS011;40928;51.076;7.950;2022-11-20T04:52:40;21.02;;;8.20;;
55031;SDS011;40928;51.076;7.950;2022-11-20T04:55:06;21.50;;;7.85;;
55031;SDS011;40928;51.076;7.950;2022-11-20T04:57:32;14.63;;;7.82;;
55031;SDS011;40928;51.076;7.950;2022-11-20T04:59:57;25.55;;;9.27;;
55031;SDS011;40928;51.076;7.950;2022-11-20T05:02:23;22.60;;;8.32;;
55031;SDS011;40928;51.076;7.950;2022-11-20T05:04:48;17.70;;;8.15;;
55031;SDS011;40928;51.076;7.950;2022-11-20T05:07:14;17.77;;;8.25;;
55031;SDS011;40928;51.076;7.950;2022-11-20T05:09:40;19.55;;;7.68;;
55031;SDS011;40928;51.076;7.950;2022-11-20T05:12:07;21.33;;;8.82;;
55031;SDS011;40928;51.076;7.950;2022-11-20T05:14:33;21.70;;;8.75;;
55031;SDS011;40928;51.076;7.950;2022-11-20T05:16:59;22.90;;;8.43;;
55031;SDS011;40928;51.076;7.950;2022-11-20T05:19:24;24.60;;;9.43;;
55031;SDS011;40928;51.076;7.950;2022-11-20T05:21:50;30.90;;;10.75;;
55031;SDS011;40928;51.076;7.950;2022-11-20T05:24:15;24.15;;;9.70;;
55031;SDS011;40928;51.076;7.950;2022-11-20T05:26:41;25.45;;;10.75;;
55031;SDS011;40928;51.076;7.950;2022-11-20T05:29:09;23.52;;;11.30;;
55031;SDS011;40928;51.076;7.950;2022-11-20T05:31:35;25.23;;;12.57;;
55031;SDS011;40928;51.076;7.950;2022-11-20T05:34:02;24.08;;;9.80;;
55031;SDS011;40928;51.076;7.950;2022-11-20T05:36:27;25.77;;;10.82;;
55031;SDS011;40928;51.076;7.950;2022-11-20T05:38:53;31.25;;;11.27;;
55031;SDS011;40928;51.076;7.950;2022-11-20T05:41:19;23.58;;;10.20;;
55031;SDS011;40928;51.076;7.950;2022-11-20T05:43:45;21.17;;;9.13;;
55031;SDS011;40928;51.076;7.950;2022-11-20T05:46:13;19.58;;;9.35;;
55031;SDS011;40928;51.076;7.950;2022-11-20T05:48:41;24.02;;;11.30;;
55031;SDS011;40928;51.076;7.950;2022-11-20T05:51:08;22.20;;;9.18;;
55031;SDS011;40928;51.076;7.950;2022-11-20T05:53:36;21.10;;;9.50;;
55031;SDS011;40928;51.076;7.950;2022-11-20T05:56:03;23.27;;;9.38;;
55031;SDS011;40928;51.076;7.950;2022-11-20T05:58:31;22.90;;;8.68;;
55031;SDS011;40928;51.076;7.950;2022-11-20T06:03:40;20.30;;;9.50;;
55031;SDS011;40928;51.076;7.950;2022-11-20T06:06:07;21.38;;;9.02;;
55031;SDS011;40928;51.076;7.950;2022-11-20T06:08:33;24.02;;;9.82;;
55031;SDS011;40928;51.076;7.950;2022-11-20T06:11:03;23.95;;;8.75;;
55031;SDS011;40928;51.076;7.950;2022-11-20T06:13:30;26.00;;;9.50;;
55031;SDS011;40928;51.076;7.950;2022-11-20T06:15:56;22.80;;;9.57;;
55031;SDS011;40928;51.076;7.950;2022-11-20T06:18:21;18.02;;;8.98;;
55031;SDS011;40928;51.076;7.950;2022-11-20T06:20:47;18.08;;;8.75;;
55031;SDS011;40928;51.076;7.950;2022-11-20T06:23:13;20.00;;;9.02;;
55031;SDS011;40928;51.076;7.950;2022-11-20T06:25:39;18.15;;;8.10;;
55031;SDS011;40928;51.076;7.950;2022-11-20T06:28:06;23.98;;;9.93;;
55031;SDS011;40928;51.076;7.950;2022-11-20T06:30:32;20.42;;;9.73;;
55031;SDS011;40928;51.076;7.950;2022-11-20T06:32:58;21.92;;;9.20;;
55031;SDS011;40928;51.076;7.950;2022-11-20T06:35:23;22.58;;;10.40;;
55031;SDS011;40928;51.076;7.950;2022-11-20T06:37:49;21.52;;;9.38;;
55031;SDS011;40928;51.076;7.950;2022-11-20T06:40:15;28.73;;;10.15;;
55031;SDS011;40928;51.076;7.950;2022-11-20T06:42:40;20.45;;;9.80;;
55031;SDS011;40928;51.076;7.950;2022-11-20T06:45:06;26.10;;;10.82;;
55031;SDS011;40928;51.076;7.950;2022-11-20T06:47:32;28.08;;;11.52;;
55031;SDS011;40928;51.076;7.950;2022-11-20T06:49:58;21.67;;;8.80;;
55031;SDS011;40928;51.076;7.950;2022-11-20T06:52:23;25.30;;;10.20;;
55031;SDS011;40928;51.076;7.950;2022-11-20T06:54:49;28.65;;;10.93;;
55031;SDS011;40928;51.076;7.950;2022-11-20T06:57:14;28.80;;;10.90;;
55031;SDS011;40928;51.076;7.950;2022-11-20T06:59:40;28.63;;;11.13;;
55031;SDS011;40928;51.076;7.950;2022-11-20T07:02:08;25.02;;;11.25;;
55031;SDS011;40928;51.076;7.950;2022-11-20T07:04:35;32.92;;;12.02;;
55031;SDS011;40928;51.076;7.950;2022-11-20T07:07:01;26.92;;;10.90;;
55031;SDS011;40928;51.076;7.950;2022-11-20T07:09:26;27.85;;;12.10;;
55031;SDS011;40928;51.076;7.950;2022-11-20T07:11:52;30.63;;;11.30;;
55031;SDS011;40928;51.076;7.950;2022-11-20T07:14:17;31.65;;;12.35;;
55031;SDS011;40928;51.076;7.950;2022-11-20T07:16:43;24.65;;;10.90;;
55031;SDS011;40928;51.076;7.950;2022-11-20T07:19:08;24.80;;;10.57;;
55031;SDS011;40928;51.076;7.950;2022-11-20T07:21:33;26.10;;;10.73;;
55031;SDS011;40928;51.076;7.950;2022-11-20T07:23:59;23.50;;;10.73;;
55031;SDS011;40928;51.076;7.950;2022-11-20T07:26:24;24.48;;;9.95;;
55031;SDS011;40928;51.076;7.950;2022-11-20T07:28:50;21.95;;;9.98;;
55031;SDS011;40928;51.076;7.950;2022-11-20T07:31:15;22.33;;;10.48;;
55031;SDS011;40928;51.076;7.950;2022-11-20T07:33:41;29.38;;;10.13;;
55031;SDS011;40928;51.076;7.950;2022-11-20T07:36:07;21.88;;;9.30;;
55031;SDS011;40928;51.076;7.950;2022-11-20T07:38:32;16.63;;;8.27;;
55031;SDS011;40928;51.076;7.950;2022-11-20T07:40:58;26.73;;;10.85;;
55031;SDS011;40928;51.076;7.950;2022-11-20T07:43:27;22.90;;;10.38;;
55031;SDS011;40928;51.076;7.950;2022-11-20T07:45:59;23.45;;;10.80;;
55031;SDS011;40928;51.076;7.950;2022-11-20T07:48:24;24.20;;;10.25;;
55031;SDS011;40928;51.076;7.950;2022-11-20T07:50:53;23.15;;;10.18;;
55031;SDS011;40928;51.076;7.950;2022-11-20T07:53:19;26.55;;;10.57;;
55031;SDS011;40928;51.076;7.950;2022-11-20T07:55:46;30.27;;;13.07;;
55031;SDS011;40928;51.076;7.950;2022-11-20T07:58:12;21.17;;;10.27;;
55031;SDS011;40928;51.076;7.950;2022-11-20T08:00:39;21.65;;;10.23;;
55031;SDS011;40928;51.076;7.950;2022-11-20T08:03:05;22.92;;;10.63;;
55031;SDS011;40928;51.076;7.950;2022-11-20T08:05:30;22.45;;;8.73;;
55031;SDS011;40928;51.076;7.950;2022-11-20T08:07:56;19.63;;;8.68;;
55031;SDS011;40928;51.076;7.950;2022-11-20T08:10:21;18.25;;;8.57;;
55031;SDS011;40928;51.076;7.950;2022-11-20T08:12:48;17.33;;;8.10;;
55031;SDS011;40928;51.076;7.950;2022-11-20T08:15:35;24.17;;;8.77;;
55031;SDS011;40928;51.076;7.950;2022-11-20T08:18:09;19.38;;;8.48;;
55031;SDS011;40928;51.076;7.950;2022-11-20T08:20:37;23.07;;;10.07;;
55031;SDS011;40928;51.076;7.950;2022-11-20T08:23:04;21.35;;;9.63;;
55031;SDS011;40928;51.076;7.950;2022-11-20T08:25:31;22.55;;;8.52;;
55031;SDS011;40928;51.076;7.950;2022-11-20T08:28:02;20.75;;;9.38;;
55031;SDS011;40928;51.076;7.950;2022-11-20T08:30:34;21.15;;;9.13;;
55031;SDS011;40928;51.076;7.950;2022-11-20T08:33:02;17.98;;;9.38;;
55031;SDS011;40928;51.076;7.950;2022-11-20T08:35:33;17.08;;;7.93;;
55031;SDS011;40928;51.076;7.950;2022-11-20T08:38:00;21.85;;;9.43;;
55031;SDS011;40928;51.076;7.950;2022-11-20T08:40:26;17.48;;;8.13;;
55031;SDS011;40928;51.076;7.950;2022-11-20T08:42:51;17.92;;;8.40;;
55031;SDS011;40928;51.076;7.950;2022-11-20T08:45:17;16.17;;;8.70;;
55031;SDS011;40928;51.076;7.950;2022-11-20T08:47:44;18.40;;;7.63;;
55031;SDS011;40928;51.076;7.950;2022-11-20T08:50:10;15.95;;;7.15;;
55031;SDS011;40928;51.076;7.950;2022-11-20T08:52:37;20.77;;;9.52;;
55031;SDS011;40928;51.076;7.950;2022-11-20T08:55:03;24.65;;;9.93;;
55031;SDS011;40928;51.076;7.950;2022-11-20T08:57:33;22.90;;;8.80;;
55031;SDS011;40928;51.076;7.950;2022-11-20T08:59:59;17.63;;;8.48;;
55031;SDS011;40928;51.076;7.950;2022-11-20T09:02:25;18.58;;;8.52;;
55031;SDS011;40928;51.076;7.950;2022-11-20T09:04:51;17.95;;;7.57;;
55031;SDS011;40928;51.076;7.950;2022-11-20T09:07:16;17.33;;;8.88;;
55031;SDS011;40928;51.076;7.950;2022-11-20T09:09:42;21.58;;;8.93;;
55031;SDS011;40928;51.076;7.950;2022-11-20T09:12:07;23.58;;;8.77;;
55031;SDS011;40928;51.076;7.950;2022-11-20T09:14:33;19.45;;;8.18;;
55031;SDS011;40928;51.076;7.950;2022-11-20T09:16:58;13.43;;;7.13;;
55031;SDS011;40928;51.076;7.950;2022-11-20T09:19:24;18.42;;;8.10;;
55031;SDS011;40928;51.076;7.950;2022-11-20T09:24:23;18.00;;;8.88;;
55031;SDS011;40928;51.076;7.950;2022-11-20T09:29:22;18.75;;;8.30;;
55031;SDS011;40928;51.076;7.950;2022-11-20T09:31:47;20.48;;;8.55;;
55031;SDS011;40928;51.076;7.950;2022-11-20T09:34:13;16.45;;;7.88;;
55031;SDS011;40928;51.076;7.950;2022-11-20T09:36:38;16.40;;;7.55;;
55031;SDS011;40928;51.076;7.950;2022-11-20T09:39:04;17.52;;;7.70;;
55031;SDS011;40928;51.076;7.950;2022-11-20T09:44:49;17.02;;;7.93;;
55031;SDS011;40928;51.076;7.950;2022-11-20T09:53:09;11.73;;;6.93;;
55031;SDS011;40928;51.076;7.950;2022-11-20T09:55:38;11.80;;;6.50;;
55031;SDS011;40928;51.076;7.950;2022-11-20T09:58:05;18.17;;;7.68;;
55031;SDS011;40928;51.076;7.950;2022-11-20T10:00:34;13.93;;;7.53;;
55031;SDS011;40928;51.076;7.950;2022-11-20T10:03:01;16.30;;;8.18;;
55031;SDS011;40928;51.076;7.950;2022-11-20T10:10:50;14.05;;;5.15;;
55031;SDS011;40928;51.076;7.950;2022-11-20T10:18:49;9.02;;;5.05;;
55031;SDS011;40928;51.076;7.950;2022-11-20T10:21:22;11.85;;;5.60;;
55031;SDS011;40928;51.076;7.950;2022-11-20T10:29:34;15.00;;;6.88;;
55031;SDS011;40928;51.076;7.950;2022-11-20T10:32:22;12.23;;;6.50;;
55031;SDS011;40928;51.076;7.950;2022-11-20T10:34:59;13.38;;;6.43;;
55031;SDS011;40928;51.076;7.950;2022-11-20T10:37:29;11.63;;;5.53;;
55031;SDS011;40928;51.076;7.950;2022-11-20T10:42:43;9.60;;;5.72;;
55031;SDS011;40928;51.076;7.950;2022-11-20T10:48:05;11.67;;;5.37;;
55031;SDS011;40928;51.076;7.950;2022-11-20T10:50:37;9.63;;;5.32;;
55031;SDS011;40928;51.076;7.950;2022-11-20T10:53:20;9.75;;;4.68;;
55031;SDS011;40928;51.076;7.950;2022-11-20T10:56:07;12.43;;;5.65;;
55031;SDS011;40928;51.076;7.950;2022-11-20T11:01:45;11.13;;;5.93;;
55031;SDS011;40928;51.076;7.950;2022-11-20T11:04:34;12.50;;;6.82;;
55031;SDS011;40928;51.076;7.950;2022-11-20T11:09:59;14.05;;;6.72;;
55031;SDS011;40928;51.076;7.950;2022-11-20T11:12:25;12.38;;;5.78;;
55031;SDS011;40928;51.076;7.950;2022-11-20T11:14:53;16.15;;;6.43;;
55031;SDS011;40928;51.076;7.950;2022-11-20T11:17:38;11.98;;;6.00;;
55031;SDS011;40928;51.076;7.950;2022-11-20T11:20:16;14.68;;;6.90;;
55031;SDS011;40928;51.076;7.950;2022-11-20T11:22:57;13.43;;;5.35;;
55031;SDS011;40928;51.076;7.950;2022-11-20T11:25:30;13.25;;;6.13;;
55031;SDS011;40928;51.076;7.950;2022-11-20T11:28:02;17.02;;;7.53;;
55031;SDS011;40928;51.076;7.950;2022-11-20T11:30:30;14.77;;;7.18;;
55031;SDS011;40928;51.076;7.950;2022-11-20T11:33:11;15.68;;;7.45;;
55031;SDS011;40928;51.076;7.950;2022-11-20T11:35:44;13.88;;;7.10;;
55031;SDS011;40928;51.076;7.950;2022-11-20T11:38:21;15.68;;;6.90;;
55031;SDS011;40928;51.076;7.950;2022-11-20T11:41:00;11.95;;;5.38;;
55031;SDS011;40928;51.076;7.950;2022-11-20T11:43:28;15.65;;;7.57;;
55031;SDS011;40928;51.076;7.950;2022-11-20T11:48:54;13.00;;;6.85;;
55031;SDS011;40928;51.076;7.950;2022-11-20T11:51:21;16.55;;;7.10;;
55031;SDS011;40928;51.076;7.950;2022-11-20T11:53:47;12.65;;;6.43;;
55031;SDS011;40928;51.076;7.950;2022-11-20T11:56:12;11.77;;;6.13;;
55031;SDS011;40928;51.076;7.950;2022-11-20T12:06:43;13.85;;;6.30;;
55031;SDS011;40928;51.076;7.950;2022-11-20T12:09:12;12.43;;;5.75;;
55031;SDS011;40928;51.076;7.950;2022-11-20T12:11:49;14.95;;;6.13;;
55031;SDS011;40928;51.076;7.950;2022-11-20T12:14:26;14.10;;;6.60;;
55031;SDS011;40928;51.076;7.950;2022-11-20T12:16:57;13.30;;;5.65;;
55031;SDS011;40928;51.076;7.950;2022-11-20T12:19:23;16.23;;;7.30;;
55031;SDS011;40928;51.076;7.950;2022-11-20T12:21:54;11.25;;;6.05;;
55031;SDS011;40928;51.076;7.950;2022-11-20T12:29:56;12.85;;;6.20;;
55031;SDS011;40928;51.076;7.950;2022-11-20T12:41:01;12.73;;;6.95;;
55031;SDS011;40928;51.076;7.950;2022-11-20T12:43:30;16.88;;;7.85;;
55031;SDS011;40928;51.076;7.950;2022-11-20T12:54:25;14.23;;;7.03;;
55031;SDS011;40928;51.076;7.950;2022-11-20T13:02:09;14.43;;;7.03;;
55031;SDS011;40928;51.076;7.950;2022-11-20T13:07:37;16.83;;;6.97;;
55031;SDS011;40928;51.076;7.950;2022-11-20T13:10:03;29.85;;;9.68;;
55031;SDS011;40928;51.076;7.950;2022-11-20T13:12:45;17.73;;;7.95;;
55031;SDS011;40928;51.076;7.950;2022-11-20T13:18:11;23.40;;;9.60;;
55031;SDS011;40928;51.076;7.950;2022-11-20T13:20:41;19.70;;;8.90;;
55031;SDS011;40928;51.076;7.950;2022-11-20T13:23:09;15.75;;;7.15;;
55031;SDS011;40928;51.076;7.950;2022-11-20T13:25:36;14.95;;;7.05;;
55031;SDS011;40928;51.076;7.950;2022-11-20T13:28:04;16.77;;;8.68;;
55031;SDS011;40928;51.076;7.950;2022-11-20T13:30:51;19.20;;;8.18;;
55031;SDS011;40928;51.076;7.950;2022-11-20T13:36:35;19.25;;;8.25;;
55031;SDS011;40928;51.076;7.950;2022-11-20T13:38:50;19.23;;;9.38;;
55031;SDS011;40928;51.076;7.950;2022-11-20T13:41:30;19.38;;;8.70;;
55031;SDS011;40928;51.076;7.950;2022-11-20T13:46:36;19.63;;;9.05;;
55031;SDS011;40928;51.076;7.950;2022-11-20T13:49:07;22.00;;;9.85;;
55031;SDS011;40928;51.076;7.950;2022-11-20T13:54:22;23.83;;;9.85;;
55031;SDS011;40928;51.076;7.950;2022-11-20T13:59:57;21.30;;;9.55;;
55031;SDS011;40928;51.076;7.950;2022-11-20T14:02:36;23.58;;;10.82;;
55031;SDS011;40928;51.076;7.950;2022-11-20T14:05:02;20.73;;;10.73;;
55031;SDS011;40928;51.076;7.950;2022-11-20T14:07:34;24.92;;;10.23;;
55031;SDS011;40928;51.076;7.950;2022-11-20T14:10:04;27.60;;;10.65;;
55031;SDS011;40928;51.076;7.950;2022-11-20T14:12:32;26.00;;;11.85;;
55031;SDS011;40928;51.076;7.950;2022-11-20T14:14:59;25.30;;;11.95;;
55031;SDS011;40928;51.076;7.950;2022-11-20T14:19:53;38.72;;;15.20;;
55031;SDS011;40928;51.076;7.950;2022-11-20T14:22:23;37.90;;;15.38;;
55031;SDS011;40928;51.076;7.950;2022-11-20T14:27:38;21.15;;;10.55;;
55031;SDS011;40928;51.076;7.950;2022-11-20T14:30:06;25.83;;;11.30;;
55031;SDS011;40928;51.076;7.950;2022-11-20T14:32:42;21.85;;;11.75;;
55031;SDS011;40928;51.076;7.950;2022-11-20T14:35:10;31.20;;;13.05;;
55031;SDS011;40928;51.076;7.950;2022-11-20T14:37:44;29.75;;;12.15;;
55031;SDS011;40928;51.076;7.950;2022-11-20T14:40:23;37.17;;;15.70;;
55031;SDS011;40928;51.076;7.950;2022-11-20T14:42:54;31.95;;;12.90;;
55031;SDS011;40928;51.076;7.950;2022-11-20T14:45:21;30.40;;;13.32;;
55031;SDS011;40928;51.076;7.950;2022-11-20T14:47:47;26.50;;;12.65;;
55031;SDS011;40928;51.076;7.950;2022-11-20T14:50:24;28.42;;;13.60;;
55031;SDS011;40928;51.076;7.950;2022-11-20T14:52:55;28.60;;;12.88;;
55031;SDS011;40928;51.076;7.950;2022-11-20T14:55:26;25.25;;;11.77;;
55031;SDS011;40928;51.076;7.950;2022-11-20T14:57:57;27.05;;;11.10;;
55031;SDS011;40928;51.076;7.950;2022-11-20T15:00:25;22.45;;;10.50;;
55031;SDS011;40928;51.076;7.950;2022-11-20T15:02:51;22.65;;;11.82;;
55031;SDS011;40928;51.076;7.950;2022-11-20T15:05:21;30.00;;;14.45;;
55031;SDS011;40928;51.076;7.950;2022-11-20T15:08:08;38.40;;;14.55;;
55031;SDS011;40928;51.076;7.950;2022-11-20T15:10:35;32.22;;;13.40;;
55031;SDS011;40928;51.076;7.950;2022-11-20T15:13:05;24.30;;;11.95;;
55031;SDS011;40928;51.076;7.950;2022-11-20T15:21:11;24.43;;;11.53;;
55031;SDS011;40928;51.076;7.950;2022-11-20T15:23:39;23.23;;;10.45;;
55031;SDS011;40928;51.076;7.950;2022-11-20T15:26:05;26.85;;;11.68;;
55031;SDS011;40928;51.076;7.950;2022-11-20T15:28:50;25.35;;;12.38;;
55031;SDS011;40928;51.076;7.950;2022-11-20T15:31:16;25.90;;;11.70;;
55031;SDS011;40928;51.076;7.950;2022-11-20T15:33:44;26.25;;;11.60;;
55031;SDS011;40928;51.076;7.950;2022-11-20T15:36:10;23.45;;;10.70;;
55031;SDS011;40928;51.076;7.950;2022-11-20T15:38:35;26.08;;;11.52;;
55031;SDS011;40928;51.076;7.950;2022-11-20T15:41:01;21.98;;;10.45;;
55031;SDS011;40928;51.076;7.950;2022-11-20T15:43:26;29.02;;;12.02;;
55031;SDS011;40928;51.076;7.950;2022-11-20T15:45:56;32.95;;;12.98;;
55031;SDS011;40928;51.076;7.950;2022-11-20T15:48:47;20.58;;;11.30;;
55031;SDS011;40928;51.076;7.950;2022-11-20T15:53:45;25.15;;;11.48;;
55031;SDS011;40928;51.076;7.950;2022-11-20T15:56:13;26.98;;;12.07;;
55031;SDS011;40928;51.076;7.950;2022-11-20T15:58:40;27.73;;;12.63;;
55031;SDS011;40928;51.076;7.950;2022-11-20T16:01:09;28.92;;;12.32;;
55031;SDS011;40928;51.076;7.950;2022-11-20T16:03:37;32.28;;;14.25;;
55031;SDS011;40928;51.076;7.950;2022-11-20T16:06:02;28.45;;;13.98;;
55031;SDS011;40928;51.076;7.950;2022-11-20T16:08:28;40.78;;;16.83;;
55031;SDS011;40928;51.076;7.950;2022-11-20T16:10:53;31.80;;;15.40;;
55031;SDS011;40928;51.076;7.950;2022-11-20T16:13:19;34.72;;;15.25;;
55031;SDS011;40928;51.076;7.950;2022-11-20T16:16:04;37.22;;;16.17;;
55031;SDS011;40928;51.076;7.950;2022-11-20T16:18:36;73.35;;;25.88;;
55031;SDS011;40928;51.076;7.950;2022-11-20T16:21:02;37.85;;;16.17;;
55031;SDS011;40928;51.076;7.950;2022-11-20T16:23:28;28.25;;;13.15;;
55031;SDS011;40928;51.076;7.950;2022-11-20T16:25:54;24.35;;;11.48;;
55031;SDS011;40928;51.076;7.950;2022-11-20T16:28:19;27.70;;;11.32;;
55031;SDS011;40928;51.076;7.950;2022-11-20T16:30:45;26.73;;;11.38;;
55031;SDS011;40928;51.076;7.950;2022-11-20T16:33:12;25.10;;;10.52;;
55031;SDS011;40928;51.076;7.950;2022-11-20T16:35:44;26.30;;;10.63;;
55031;SDS011;40928;51.076;7.950;2022-11-20T16:38:10;26.55;;;12.98;;
55031;SDS011;40928;51.076;7.950;2022-11-20T16:40:35;26.70;;;10.27;;
55031;SDS011;40928;51.076;7.950;2022-11-20T16:43:06;24.45;;;9.50;;
55031;SDS011;40928;51.076;7.950;2022-11-20T16:45:37;21.45;;;9.80;;
55031;SDS011;40928;51.076;7.950;2022-11-20T16:48:05;23.45;;;8.77;;